Time;durP1;ratioP1;P1;durP2;ratioP2;P2;SDS_P1;SDS_P2;PMS_P1;PMS_P2;Temp;Humidity;BMP_temperature;BMP_pressure;BME280_temperature;BME280_humidity;BME280_pressure;Samples;Min_cycle;Max_cycle;Signal;HPM_P1;HPM_P2
2022/11/22 00:00:39;;;;;;;2.80;2.67;;;5.70;99.90;;;;;;5015963;28;20214;-93
2022/11/22 00:03:05;;;;;;;2.50;2.37;;;5.70;99.90;;;;;;5029564;28;20581;-93
2022/11/22 00:05:31;;;;;;;1.60;1.50;;;5.70;99.90;;;;;;5015311;28;20225;-93
2022/11/22 00:07:57;;;;;;;3.07;2.23;;;5.70;99.90;;;;;;4999797;28;20214;-91
2022/11/22 00:10:23;;;;;;;1.43;0.70;;;5.60;99.90;;;;;;4998847;28;20198;-91
2022/11/22 00:12:49;;;;;;;3.40;3.10;;;5.70;99.90;;;;;;5014674;28;20190;-92
2022/11/22 00:15:14;;;;;;;2.47;1.63;;;5.60;99.90;;;;;;5032341;28;20583;-92
2022/11/22 00:17:40;;;;;;;2.17;2.07;;;5.70;99.90;;;;;;4999035;28;20309;-91
2022/11/22 00:20:09;;;;;;;9.77;3.57;;;5.70;99.90;;;;;;5002416;28;20332;-91
2022/11/22 00:22:35;;;;;;;5.10;4.67;;;5.60;99.90;;;;;;5029449;28;20288;-91
2022/11/22 00:25:01;;;;;;;2.10;2.00;;;5.60;99.90;;;;;;4997482;28;20182;-92
2022/11/22 00:27:26;;;;;;;1.73;1.63;;;5.60;99.90;;;;;;4996078;28;20232;-91
2022/11/22 00:29:52;;;;;;;0.60;0.60;;;5.60;99.90;;;;;;5016971;28;20658;-92
2022/11/22 00:32:18;;;;;;;3.57;2.93;;;5.60;99.90;;;;;;5016676;28;20718;-90
2022/11/22 00:34:44;;;;;;;4.83;1.90;;;5.60;99.90;;;;;;5030280;28;20226;-90
2022/11/22 00:37:09;;;;;;;2.53;1.63;;;5.60;99.90;;;;;;5017904;28;20201;-92
2022/11/22 00:39:35;;;;;;;2.10;1.83;;;5.60;99.90;;;;;;5017211;28;20215;-91
2022/11/22 00:42:01;;;;;;;4.30;2.40;;;5.60;99.90;;;;;;5002241;28;20697;-91
2022/11/22 00:44:26;;;;;;;3.47;3.17;;;5.70;99.90;;;;;;5002431;28;20207;-91
2022/11/22 00:46:52;;;;;;;2.43;1.50;;;5.60;99.90;;;;;;5003559;28;20557;-92
2022/11/22 00:49:18;;;;;;;2.43;1.97;;;5.60;99.90;;;;;;5000427;28;20225;-92
2022/11/22 00:51:44;;;;;;;3.17;2.83;;;5.60;99.90;;;;;;5018609;28;20190;-91
2022/11/22 00:54:10;;;;;;;0.73;0.60;;;5.60;99.90;;;;;;5034529;28;20222;-92
2022/11/22 00:56:36;;;;;;;5.70;5.30;;;5.60;99.90;;;;;;5001979;28;20252;-92
2022/11/22 00:59:01;;;;;;;2.10;1.70;;;5.60;99.90;;;;;;5015597;28;20222;-92
2022/11/22 01:01:27;;;;;;;3.30;3.20;;;5.50;99.90;;;;;;5017337;28;20533;-91
2022/11/22 01:03:53;;;;;;;3.60;3.40;;;5.50;99.90;;;;;;5001450;28;20190;-91
2022/11/22 01:06:19;;;;;;;1.33;1.23;;;5.50;99.90;;;;;;5033080;28;20202;-91
2022/11/22 01:08:45;;;;;;;5.00;4.57;;;5.50;99.90;;;;;;5016975;28;20268;-91
2022/11/22 01:11:18;;;;;;;1.30;1.23;;;5.50;99.90;;;;;;5035254;28;20214;-91
2022/11/22 01:13:43;;;;;;;1.33;1.33;;;5.60;99.90;;;;;;5019109;28;20300;-91
2022/11/22 01:16:11;;;;;;;2.93;2.40;;;5.50;99.90;;;;;;5018442;28;20237;-91
2022/11/22 01:18:36;;;;;;;1.63;1.40;;;5.50;99.90;;;;;;5034829;28;20276;-90
2022/11/22 01:21:03;;;;;;;1.10;1.10;;;5.50;99.90;;;;;;5000584;28;20230;-90
2022/11/22 01:23:29;;;;;;;1.80;1.67;;;5.50;99.90;;;;;;5015065;28;20220;-92
2022/11/22 01:25:55;;;;;;;2.73;2.63;;;5.60;99.90;;;;;;5000345;28;20616;-91
2022/11/22 01:28:21;;;;;;;0.77;0.77;;;5.60;99.90;;;;;;5016635;28;20229;-91
2022/11/22 01:30:50;;;;;;;2.73;1.33;;;5.40;99.90;;;;;;4998495;28;20178;-91
2022/11/22 01:33:16;;;;;;;1.30;1.20;;;5.40;99.90;;;;;;5033153;28;20253;-93
2022/11/22 01:35:42;;;;;;;3.67;1.40;;;5.40;99.90;;;;;;5002212;28;20246;-93
2022/11/22 01:38:08;;;;;;;1.30;1.30;;;5.40;99.90;;;;;;5020269;28;20221;-92
2022/11/22 01:40:34;;;;;;;2.23;2.13;;;5.40;99.90;;;;;;5017834;28;20309;-91
2022/11/22 01:43:00;;;;;;;1.17;1.07;;;5.40;99.90;;;;;;5018053;28;20717;-90
2022/11/22 01:45:29;;;;;;;1.63;1.53;;;5.40;99.90;;;;;;5013892;28;20265;-92
2022/11/22 01:48:03;;;;;;;0.57;0.57;;;5.40;99.90;;;;;;5033940;28;20222;-90
2022/11/22 01:50:34;;;;;;;0.50;0.50;;;5.40;99.90;;;;;;5032604;28;20214;-91
2022/11/22 01:53:05;;;;;;;1.27;1.27;;;5.40;99.90;;;;;;5030744;28;20218;-92
2022/11/22 01:55:31;;;;;;;5.77;3.13;;;5.40;99.90;;;;;;5029995;28;20211;-90
2022/11/22 01:57:57;;;;;;;2.57;0.53;;;5.40;99.90;;;;;;4999027;28;20529;-90
2022/11/22 02:00:23;;;;;;;1.83;1.73;;;5.40;99.90;;;;;;5016137;28;20272;-91
2022/11/22 02:02:59;;;;;;;1.27;1.27;;;5.50;99.90;;;;;;5015540;28;20214;-90
2022/11/22 02:05:30;;;;;;;1.60;1.50;;;5.50;99.90;;;;;;5030881;28;20698;-92
2022/11/22 02:08:07;;;;;;;1.83;1.73;;;5.50;99.90;;;;;;5051018;28;20210;-91
2022/11/22 02:10:39;;;;;;;1.63;1.53;;;5.50;99.90;;;;;;5035001;28;20269;-91
2022/11/22 02:13:06;;;;;;;2.50;2.33;;;5.50;99.90;;;;;;5031019;28;20196;-90
2022/11/22 02:15:35;;;;;;;0.53;0.53;;;5.50;99.90;;;;;;5029856;28;20221;-91
2022/11/22 02:18:00;;;;;;;1.27;1.27;;;5.50;99.90;;;;;;5016971;28;20244;-91
2022/11/22 02:20:26;;;;;;;1.53;0.90;;;5.40;99.90;;;;;;4999447;28;20709;-90
2022/11/22 02:23:19;;;;;;;3.13;2.93;;;5.40;99.90;;;;;;5016096;28;20222;-91
2022/11/22 02:25:59;;;;;;;1.53;1.47;;;5.40;99.90;;;;;;5032844;28;20632;-90
2022/11/22 02:28:29;;;;;;;1.43;0.93;;;5.40;99.90;;;;;;5031065;28;20257;-90
2022/11/22 02:30:54;;;;;;;6.60;2.40;;;5.40;99.90;;;;;;5037117;28;20277;-91
2022/11/22 02:33:20;;;;;;;1.90;1.80;;;5.40;99.90;;;;;;4998279;28;20663;-91
2022/11/22 02:35:46;;;;;;;1.33;1.13;;;5.40;99.90;;;;;;5014524;28;20240;-91
2022/11/22 02:38:19;;;;;;;2.83;1.70;;;5.40;99.90;;;;;;5033362;28;20864;-90
2022/11/22 02:41:14;;;;;;;2.10;1.97;;;5.40;99.90;;;;;;5032832;28;20313;-91
2022/11/22 02:43:46;;;;;;;0.70;0.70;;;5.40;99.90;;;;;;4999786;28;20476;-90
2022/11/22 02:46:20;;;;;;;2.80;1.00;;;5.50;99.90;;;;;;5016762;28;20211;-92
2022/11/22 02:48:46;;;;;;;7.60;5.87;;;5.50;99.90;;;;;;5031440;28;20273;-91
2022/11/22 02:51:15;;;;;;;1.93;1.83;;;5.50;99.90;;;;;;5019159;28;20218;-91
2022/11/22 02:53:46;;;;;;;2.23;2.13;;;5.50;99.90;;;;;;5049128;28;20267;-91
2022/11/22 02:56:12;;;;;;;2.27;1.33;;;5.50;99.90;;;;;;5031875;28;20214;-92
2022/11/22 02:58:38;;;;;;;4.00;2.63;;;5.50;99.90;;;;;;5014476;28;20400;-90
2022/11/22 03:01:04;;;;;;;2.10;1.97;;;5.50;99.90;;;;;;5013140;28;20272;-91
2022/11/22 03:03:31;;;;;;;4.60;4.13;;;5.50;99.90;;;;;;5017993;28;20631;-91
2022/11/22 03:05:56;;;;;;;0.77;0.77;;;5.50;99.90;;;;;;5031460;28;20306;-90
2022/11/22 03:08:22;;;;;;;3.80;3.30;;;5.50;99.90;;;;;;4996740;28;20301;-92
2022/11/22 03:10:48;;;;;;;1.43;1.43;;;5.50;99.90;;;;;;5014750;28;20670;-90
2022/11/22 03:13:14;;;;;;;8.40;1.23;;;5.50;99.90;;;;;;4998656;28;20187;-89
2022/11/22 03:15:39;;;;;;;14.03;3.23;;;5.50;99.90;;;;;;4999716;28;20194;-91
2022/11/22 03:18:05;;;;;;;3.83;2.80;;;5.50;99.90;;;;;;5029585;28;20590;-91
2022/11/22 03:20:32;;;;;;;1.40;1.37;;;5.50;99.90;;;;;;5032825;28;20219;-92
2022/11/22 03:23:01;;;;;;;2.37;2.13;;;5.50;99.90;;;;;;5016057;28;20764;-91
2022/11/22 03:25:27;;;;;;;0.47;0.47;;;5.50;99.90;;;;;;5015697;28;20205;-92
2022/11/22 03:27:52;;;;;;;2.00;1.90;;;5.50;99.90;;;;;;5013899;28;20185;-90
2022/11/22 03:30:18;;;;;;;1.47;1.27;;;5.50;99.90;;;;;;4997882;28;20225;-90
2022/11/22 03:32:44;;;;;;;2.97;2.40;;;5.50;99.90;;;;;;5015805;28;20222;-93
2022/11/22 03:35:10;;;;;;;1.53;1.43;;;5.50;99.90;;;;;;4999201;28;21016;-90
2022/11/22 03:37:36;;;;;;;5.20;3.90;;;5.50;99.90;;;;;;5011783;28;20222;-90
2022/11/22 03:40:02;;;;;;;3.27;2.97;;;5.50;99.90;;;;;;5012172;28;20313;-91
2022/11/22 03:42:28;;;;;;;3.77;3.00;;;5.50;99.90;;;;;;5000727;28;20257;-91
2022/11/22 03:44:53;;;;;;;2.70;2.60;;;5.60;99.90;;;;;;5016176;28;20757;-90
2022/11/22 03:47:19;;;;;;;2.27;2.13;;;5.60;99.90;;;;;;4997090;28;20682;-91
2022/11/22 03:49:45;;;;;;;4.70;2.97;;;5.60;99.90;;;;;;5033420;28;20214;-90
2022/11/22 03:52:10;;;;;;;3.60;2.90;;;5.60;99.90;;;;;;4997681;28;20186;-90
2022/11/22 03:54:37;;;;;;;1.43;1.43;;;5.60;99.90;;;;;;4997568;28;20185;-90
2022/11/22 03:57:03;;;;;;;1.97;1.77;;;5.70;99.90;;;;;;5000208;28;20271;-91
2022/11/22 03:59:29;;;;;;;2.73;2.53;;;5.70;99.90;;;;;;5017603;28;20225;-90
2022/11/22 04:01:55;;;;;;;5.63;3.03;;;5.70;99.90;;;;;;5017060;28;20222;-90
2022/11/22 04:04:20;;;;;;;4.70;4.30;;;5.70;99.90;;;;;;5016311;28;20202;-91
2022/11/22 04:06:46;;;;;;;1.20;1.10;;;5.80;99.90;;;;;;5016328;28;20550;-90
2022/11/22 04:09:12;;;;;;;1.30;1.30;;;5.80;99.90;;;;;;5014368;28;20218;-90
2022/11/22 04:11:38;;;;;;;2.00;1.90;;;5.90;99.90;;;;;;4995792;28;20219;-90
2022/11/22 04:16:48;;;;;;;3.23;3.03;;;5.90;99.90;;;;;;5021058;28;20276;-91
2022/11/22 04:19:14;;;;;;;3.57;3.27;;;5.90;99.90;;;;;;5017103;28;20190;-90
2022/11/22 04:21:39;;;;;;;3.03;2.53;;;5.90;99.90;;;;;;5032097;28;20845;-90
2022/11/22 04:26:53;;;;;;;4.47;3.40;;;6.00;99.90;;;;;;5037271;28;20210;-91
2022/11/22 04:29:19;;;;;;;4.67;4.27;;;6.00;99.90;;;;;;5020114;28;20249;-91
2022/11/22 04:34:30;;;;;;;3.20;2.97;;;6.00;99.90;;;;;;5033497;28;20333;-91
2022/11/22 04:36:56;;;;;;;3.33;3.13;;;6.00;99.90;;;;;;5030981;28;20591;-91
2022/11/22 04:39:22;;;;;;;6.07;4.33;;;6.10;99.90;;;;;;5035845;28;20695;-90
2022/11/22 04:44:39;;;;;;;2.83;2.63;;;6.10;99.90;;;;;;5022010;28;20277;-91
2022/11/22 04:44:39;;;;;;;6.67;1.97;;;6.20;99.90;;;;;;5038716;28;20297;-90
2022/11/22 04:47:10;;;;;;;2.13;2.00;;;6.20;99.90;;;;;;5018606;28;20237;-90
2022/11/22 04:49:36;;;;;;;2.77;2.20;;;6.20;99.90;;;;;;5022588;28;20241;-90
2022/11/22 04:54:46;;;;;;;5.37;4.87;;;6.20;99.90;;;;;;5041688;28;20220;-91
2022/11/22 04:57:12;;;;;;;2.37;2.17;;;6.20;99.90;;;;;;5007110;28;20219;-91
2022/11/22 04:59:38;;;;;;;3.87;3.50;;;6.30;99.90;;;;;;5024234;28;20247;-90
2022/11/22 05:02:04;;;;;;;3.93;3.63;;;6.30;99.90;;;;;;5006419;28;20259;-91
2022/11/22 05:04:29;;;;;;;3.30;3.00;;;6.30;99.90;;;;;;5005983;28;20219;-91
2022/11/22 05:06:57;;;;;;;5.47;3.40;;;6.40;99.90;;;;;;5038860;28;20259;-90
2022/11/22 05:09:23;;;;;;;3.37;3.17;;;6.40;99.90;;;;;;5023189;28;20214;-91
2022/11/22 05:11:49;;;;;;;2.97;2.77;;;6.40;99.90;;;;;;5022113;28;20741;-92
2022/11/22 05:14:15;;;;;;;2.13;1.60;;;6.40;99.90;;;;;;5006617;28;20213;-92
2022/11/22 05:16:40;;;;;;;3.97;3.77;;;6.50;99.90;;;;;;5022113;28;20276;-91
2022/11/22 05:19:06;;;;;;;3.13;3.03;;;6.50;99.90;;;;;;5007103;28;20189;-90
2022/11/22 05:21:34;;;;;;;3.13;2.80;;;6.50;99.90;;;;;;5024124;28;20225;-90
2022/11/22 05:24:01;;;;;;;5.27;4.37;;;6.50;99.90;;;;;;5023389;28;20275;-90
2022/11/22 05:26:30;;;;;;;3.70;1.83;;;6.50;99.90;;;;;;5040391;28;20232;-92
2022/11/22 05:28:59;;;;;;;1.80;1.70;;;6.50;99.90;;;;;;5038318;28;20584;-92
2022/11/22 05:31:26;;;;;;;3.90;2.23;;;6.60;99.90;;;;;;5023390;28;20187;-91
2022/11/22 05:33:53;;;;;;;2.70;2.50;;;6.60;99.90;;;;;;5022588;28;20218;-91
2022/11/22 05:36:20;;;;;;;5.13;4.63;;;6.60;99.90;;;;;;5039837;28;20243;-91
2022/11/22 05:38:47;;;;;;;4.77;3.63;;;6.50;99.90;;;;;;5022422;28;20219;-92
2022/11/22 05:41:14;;;;;;;4.63;3.13;;;6.60;99.90;;;;;;5055762;28;20295;-94
2022/11/22 05:43:40;;;;;;;4.10;3.67;;;6.60;99.90;;;;;;5026643;28;20218;-92
2022/11/22 05:46:20;;;;;;;6.00;4.47;;;6.60;99.90;;;;;;5007488;28;20257;-92
2022/11/22 05:48:46;;;;;;;4.83;3.67;;;6.70;99.90;;;;;;5039317;28;20249;-91
2022/11/22 05:51:18;;;;;;;6.20;3.13;;;6.70;99.90;;;;;;5054255;28;20198;-89
2022/11/22 05:53:44;;;;;;;5.07;4.77;;;6.80;99.90;;;;;;5021393;28;20215;-90
2022/11/22 05:56:13;;;;;;;5.67;5.13;;;6.80;99.90;;;;;;5035442;28;20577;-88
2022/11/22 05:58:40;;;;;;;2.63;1.93;;;6.80;99.90;;;;;;5036749;28;20225;-90
2022/11/22 06:01:12;;;;;;;6.97;3.60;;;6.80;99.90;;;;;;5007229;28;20275;-89
2022/11/22 06:03:38;;;;;;;3.57;2.10;;;6.80;99.90;;;;;;5037542;28;20268;-89
2022/11/22 06:06:05;;;;;;;4.60;3.37;;;6.90;99.90;;;;;;5039000;28;20586;-89
2022/11/22 06:08:33;;;;;;;3.80;3.43;;;6.90;99.90;;;;;;5034186;28;20679;-89
2022/11/22 06:11:07;;;;;;;5.13;2.97;;;6.90;99.90;;;;;;5031411;28;20269;-89
2022/11/22 06:13:37;;;;;;;3.87;3.47;;;6.90;99.90;;;;;;5033678;28;20214;-89
2022/11/22 06:16:07;;;;;;;4.30;3.27;;;6.90;99.90;;;;;;5021518;28;20213;-89
2022/11/22 06:18:33;;;;;;;3.83;3.43;;;6.90;99.90;;;;;;5030145;28;20214;-89
2022/11/22 06:21:01;;;;;;;4.13;3.80;;;6.80;99.90;;;;;;5016954;28;20233;-89
2022/11/22 06:23:28;;;;;;;3.33;2.67;;;6.80;99.90;;;;;;5034019;28;20217;-89
2022/11/22 06:25:58;;;;;;;3.07;2.87;;;6.70;99.90;;;;;;5034112;28;20219;-89
2022/11/22 06:28:25;;;;;;;11.90;3.07;;;6.70;99.90;;;;;;5035231;28;20550;-89
2022/11/22 06:30:50;;;;;;;3.63;3.43;;;6.60;99.90;;;;;;5033648;28;20190;-90
2022/11/22 06:33:16;;;;;;;4.87;2.63;;;6.60;99.90;;;;;;5002973;28;20651;-88
2022/11/22 06:35:42;;;;;;;3.90;3.53;;;6.50;99.90;;;;;;4999561;28;20243;-90
2022/11/22 06:38:08;;;;;;;4.27;3.97;;;6.60;99.90;;;;;;4999858;28;20561;-89
2022/11/22 06:40:33;;;;;;;5.80;4.67;;;6.50;99.90;;;;;;5015521;28;20225;-89
2022/11/22 06:42:59;;;;;;;3.47;3.10;;;6.50;99.90;;;;;;5000096;28;20183;-90
2022/11/22 06:45:25;;;;;;;6.97;3.93;;;6.50;99.90;;;;;;5013679;28;20225;-90
2022/11/22 06:47:50;;;;;;;3.27;2.83;;;6.40;99.90;;;;;;5014236;28;20222;-90
2022/11/22 06:50:16;;;;;;;8.93;4.47;;;6.40;99.90;;;;;;5016476;28;20218;-90
2022/11/22 06:52:42;;;;;;;2.33;2.23;;;6.30;99.90;;;;;;5000683;28;20206;-89
2022/11/22 06:55:08;;;;;;;3.27;3.07;;;6.30;99.90;;;;;;5016545;28;20212;-90
2022/11/22 06:57:33;;;;;;;3.10;2.80;;;6.30;99.90;;;;;;5001042;28;20241;-90
2022/11/22 06:59:59;;;;;;;3.23;1.63;;;6.20;99.90;;;;;;4998297;28;20250;-90
2022/11/22 07:02:25;;;;;;;4.10;3.57;;;6.10;99.90;;;;;;4999722;28;20573;-89
2022/11/22 07:04:50;;;;;;;3.50;2.57;;;6.10;99.90;;;;;;4999956;28;20214;-90
2022/11/22 07:07:16;;;;;;;3.17;2.97;;;6.10;99.90;;;;;;5000533;28;20173;-89
2022/11/22 07:09:42;;;;;;;9.00;3.77;;;6.10;99.90;;;;;;5000114;28;20179;-90
2022/11/22 07:12:08;;;;;;;3.80;2.03;;;6.10;99.90;;;;;;5002687;28;20570;-90
2022/11/22 07:14:34;;;;;;;2.27;2.13;;;6.10;99.90;;;;;;4999381;28;20214;-90
2022/11/22 07:16:59;;;;;;;3.43;2.50;;;6.10;99.90;;;;;;4999463;28;20555;-90
2022/11/22 07:19:25;;;;;;;2.77;2.57;;;6.10;99.90;;;;;;5031333;28;20544;-90
2022/11/22 07:21:51;;;;;;;3.43;3.13;;;6.10;99.90;;;;;;4999206;28;20205;-91
2022/11/22 07:24:16;;;;;;;2.03;1.93;;;6.10;99.90;;;;;;4996435;28;20213;-89
2022/11/22 07:26:42;;;;;;;4.30;1.70;;;6.20;99.90;;;;;;4999276;28;20203;-90
2022/11/22 07:29:08;;;;;;;1.83;1.73;;;6.20;99.90;;;;;;5013221;28;20241;-90
2022/11/22 07:31:34;;;;;;;3.93;2.40;;;6.20;99.90;;;;;;5000655;28;20211;-89
2022/11/22 07:33:59;;;;;;;2.03;1.93;;;6.30;99.90;;;;;;4999616;28;20182;-90
2022/11/22 07:36:28;;;;;;;3.43;2.13;;;6.30;99.90;;;;;;5016001;28;20237;-90
2022/11/22 07:38:54;;;;;;;3.93;2.97;;;6.40;99.90;;;;;;5034837;28;20250;-90
2022/11/22 07:41:21;;;;;;;3.10;2.43;;;6.40;99.90;;;;;;5014703;28;20732;-89
2022/11/22 07:43:46;;;;;;;3.40;3.10;;;6.50;99.90;;;;;;5014876;28;20244;-90
2022/11/22 07:46:28;;;;;;;5.10;3.60;;;6.50;99.90;;;;;;5013648;28;20195;-90
2022/11/22 07:48:54;;;;;;;10.40;2.63;;;6.50;99.90;;;;;;5030623;28;20181;-90
2022/11/22 07:51:20;;;;;;;3.70;2.93;;;6.50;99.90;;;;;;5013538;28;20236;-90
2022/11/22 07:53:45;;;;;;;2.30;1.90;;;6.60;99.90;;;;;;4999813;28;20214;-91
2022/11/22 07:56:12;;;;;;;12.97;3.73;;;6.60;99.90;;;;;;5015611;28;20245;-90
2022/11/22 07:58:38;;;;;;;4.60;3.10;;;6.60;99.90;;;;;;5015081;28;20671;-90
2022/11/22 08:01:12;;;;;;;3.30;2.07;;;6.60;99.90;;;;;;5014529;28;20649;-91
2022/11/22 08:03:38;;;;;;;2.00;1.80;;;6.60;99.90;;;;;;5034851;28;21003;-91
2022/11/22 08:06:06;;;;;;;3.53;2.60;;;6.60;99.90;;;;;;5033461;28;20214;-91
2022/11/22 08:08:33;;;;;;;1.87;1.77;;;6.50;99.90;;;;;;5032568;28;20238;-90
2022/11/22 08:10:59;;;;;;;1.27;1.27;;;6.50;99.90;;;;;;5012282;28;20661;-89
2022/11/22 08:13:25;;;;;;;2.10;1.97;;;6.50;99.90;;;;;;5016656;28;20193;-90
2022/11/22 08:15:51;;;;;;;1.40;1.30;;;6.50;99.90;;;;;;5031798;28;20186;-89
2022/11/22 08:18:17;;;;;;;2.20;2.00;;;6.50;99.90;;;;;;5014223;28;20288;-90
2022/11/22 08:20:43;;;;;;;21.17;3.17;;;6.50;99.90;;;;;;5027707;28;20284;-90
2022/11/22 08:23:09;;;;;;;5.33;2.47;;;6.50;99.90;;;;;;4997870;28;20202;-90
2022/11/22 08:25:34;;;;;;;1.37;1.27;;;6.50;99.90;;;;;;5014834;28;20706;-90
2022/11/22 08:28:00;;;;;;;3.47;1.93;;;6.50;99.90;;;;;;4998082;28;20563;-90
2022/11/22 08:30:26;;;;;;;3.53;2.50;;;6.60;99.90;;;;;;5015617;28;20215;-90
2022/11/22 08:32:55;;;;;;;3.13;2.27;;;6.60;99.90;;;;;;5015161;28;20222;-90
2022/11/22 08:35:21;;;;;;;1.70;1.37;;;6.60;99.90;;;;;;5012514;28;20287;-89
2022/11/22 08:37:47;;;;;;;1.30;1.20;;;6.60;99.90;;;;;;5015557;28;20223;-89
2022/11/22 08:40:13;;;;;;;1.20;1.10;;;6.60;99.90;;;;;;4995721;28;20202;-89
2022/11/22 08:42:39;;;;;;;1.67;1.57;;;6.50;99.90;;;;;;5014273;28;20183;-89
2022/11/22 08:45:05;;;;;;;2.17;1.93;;;6.60;99.90;;;;;;4999116;28;20213;-88
2022/11/22 08:47:31;;;;;;;0.77;0.77;;;6.60;99.90;;;;;;5012526;28;20213;-89
2022/11/22 08:49:57;;;;;;;1.03;1.03;;;6.60;99.90;;;;;;5031250;28;20207;-89
2022/11/22 08:52:25;;;;;;;1.30;1.20;;;6.50;99.90;;;;;;5011087;28;20205;-88
2022/11/22 08:54:50;;;;;;;0.63;0.63;;;6.60;99.90;;;;;;5015139;28;20229;-89
2022/11/22 08:57:19;;;;;;;2.27;1.63;;;6.60;99.90;;;;;;5015719;28;20211;-88
2022/11/22 08:59:45;;;;;;;2.60;2.40;;;6.60;99.90;;;;;;5015290;28;20214;-90
2022/11/22 09:02:10;;;;;;;1.07;1.07;;;6.60;99.90;;;;;;5001932;28;20268;-89
2022/11/22 09:04:36;;;;;;;2.30;2.10;;;6.60;99.90;;;;;;4999320;28;20218;-89
2022/11/22 09:07:02;;;;;;;1.63;1.30;;;6.60;99.90;;;;;;5021069;28;20192;-90
2022/11/22 09:09:28;;;;;;;1.57;1.47;;;6.60;99.90;;;;;;5034472;28;20224;-89
2022/11/22 09:11:53;;;;;;;2.80;1.13;;;6.60;99.90;;;;;;5017438;28;20681;-89
2022/11/22 09:14:19;;;;;;;1.83;1.70;;;6.60;99.90;;;;;;5004095;28;20214;-89
2022/11/22 09:16:48;;;;;;;1.27;1.17;;;6.60;99.90;;;;;;5027786;28;20207;-89
2022/11/22 09:19:14;;;;;;;1.60;1.50;;;6.60;99.90;;;;;;5014829;28;20186;-90
2022/11/22 09:21:39;;;;;;;1.03;0.87;;;6.60;99.90;;;;;;5002413;28;20207;-90
2022/11/22 09:24:05;;;;;;;1.90;1.60;;;6.60;99.90;;;;;;5017224;28;20206;-89
2022/11/22 09:26:31;;;;;;;1.43;1.33;;;6.70;99.90;;;;;;5016839;28;20202;-89
2022/11/22 09:28:57;;;;;;;1.17;1.03;;;6.70;99.90;;;;;;5001924;28;20253;-90
2022/11/22 09:31:23;;;;;;;1.33;1.33;;;6.70;99.90;;;;;;5017044;28;20528;-90
2022/11/22 09:33:50;;;;;;;0.70;0.70;;;6.70;99.90;;;;;;5017044;28;20638;-88
2022/11/22 09:36:18;;;;;;;1.83;1.73;;;6.70;99.90;;;;;;5034035;28;20321;-89
2022/11/22 09:38:45;;;;;;;2.93;1.43;;;6.70;99.90;;;;;;5035394;28;20218;-89
2022/11/22 09:41:38;;;;;;;0.87;0.87;;;6.70;99.90;;;;;;5034651;28;20309;-89
2022/11/22 09:44:19;;;;;;;1.03;0.87;;;6.70;99.90;;;;;;5032953;28;20245;-89
2022/11/22 09:47:20;;;;;;;0.80;0.80;;;6.80;99.90;;;;;;5034090;28;20230;-89
2022/11/22 09:50:09;;;;;;;1.27;1.17;;;6.80;99.90;;;;;;5037247;28;20955;-89
2022/11/22 09:52:43;;;;;;;1.37;1.30;;;6.80;99.90;;;;;;5039172;28;20768;-88
2022/11/22 09:55:19;;;;;;;7.13;2.07;;;6.80;99.90;;;;;;5035484;28;20177;-87
2022/11/22 09:57:50;;;;;;;2.43;2.30;;;6.80;99.90;;;;;;5038113;28;20201;-88
2022/11/22 10:00:24;;;;;;;1.30;1.20;;;6.80;99.90;;;;;;5052155;28;20248;-88
2022/11/22 10:03:11;;;;;;;2.00;1.90;;;6.80;99.90;;;;;;5036004;28;20219;-88
2022/11/22 10:05:58;;;;;;;1.37;1.30;;;6.90;99.90;;;;;;5031839;28;20594;-89
2022/11/22 10:08:48;;;;;;;0.53;0.53;;;6.80;99.90;;;;;;5035379;28;20291;-88
2022/11/22 10:11:29;;;;;;;0.60;0.60;;;6.90;99.90;;;;;;5034942;28;20268;-88
2022/11/22 10:14:01;;;;;;;0.77;0.77;;;6.90;99.90;;;;;;5032050;28;21007;-88
2022/11/22 10:16:31;;;;;;;4.73;1.63;;;6.90;99.90;;;;;;5033060;28;20615;-88
2022/11/22 10:19:26;;;;;;;4.27;0.97;;;6.90;99.90;;;;;;5034441;28;20177;-88
2022/11/22 10:21:52;;;;;;;0.83;0.83;;;6.90;99.90;;;;;;5026806;28;20228;-88
2022/11/22 10:24:18;;;;;;;1.07;1.07;;;6.90;99.90;;;;;;5002433;28;20214;-92
2022/11/22 10:26:45;;;;;;;1.70;1.60;;;7.00;99.90;;;;;;5001706;28;20210;-89
2022/11/22 10:29:11;;;;;;;1.47;1.37;;;7.00;99.90;;;;;;5018797;28;20222;-88
2022/11/22 10:31:42;;;;;;;2.17;0.90;;;7.00;99.90;;;;;;5032599;28;20228;-88
2022/11/22 10:34:39;;;;;;;1.40;1.30;;;7.00;99.90;;;;;;5032751;28;20441;-87
2022/11/22 10:37:11;;;;;;;1.63;1.53;;;7.00;99.90;;;;;;5029402;28;20285;-89
2022/11/22 10:39:59;;;;;;;0.90;0.90;;;7.10;99.90;;;;;;5031582;28;20620;-89
2022/11/22 10:42:37;;;;;;;1.90;1.70;;;7.10;99.90;;;;;;5026444;28;20226;-88
2022/11/22 10:45:16;;;;;;;1.40;1.30;;;7.10;99.90;;;;;;5030479;28;20219;-87
2022/11/22 10:48:19;;;;;;;3.37;2.23;;;7.10;99.90;;;;;;5031578;28;20222;-88
2022/11/22 10:51:24;;;;;;;6.67;1.23;;;7.10;99.90;;;;;;5030235;28;20213;-88
2022/11/22 10:54:09;;;;;;;0.87;0.87;;;7.20;99.90;;;;;;5031232;28;20218;-87
2022/11/22 10:56:45;;;;;;;1.00;1.00;;;7.20;99.90;;;;;;5030673;28;20532;-88
2022/11/22 10:59:16;;;;;;;2.67;2.53;;;7.10;99.90;;;;;;5034666;28;20853;-86
2022/11/22 11:01:51;;;;;;;4.37;2.80;;;7.20;99.90;;;;;;5033336;28;20226;-87
2022/11/22 11:04:17;;;;;;;2.57;1.37;;;7.20;99.90;;;;;;5032817;28;20631;-88
2022/11/22 11:06:50;;;;;;;1.50;1.50;;;7.20;99.90;;;;;;5017180;28;20194;-88
2022/11/22 11:09:26;;;;;;;1.10;0.97;;;7.20;99.90;;;;;;5032081;28;20214;-88
2022/11/22 11:11:52;;;;;;;0.83;0.83;;;7.30;99.90;;;;;;5031101;28;20753;-87
2022/11/22 11:14:38;;;;;;;3.03;1.40;;;7.30;99.90;;;;;;5013166;28;20241;-87
2022/11/22 11:17:05;;;;;;;0.83;0.83;;;7.30;99.90;;;;;;5032318;28;20221;-86
2022/11/22 11:19:40;;;;;;;0.40;0.40;;;7.30;99.90;;;;;;5015278;28;20253;-88
2022/11/22 11:22:06;;;;;;;1.80;1.70;;;7.30;99.90;;;;;;5030525;28;20259;-87
2022/11/22 11:24:32;;;;;;;1.07;1.07;;;7.20;99.90;;;;;;5033840;28;20214;-86
2022/11/22 11:26:59;;;;;;;0.40;0.40;;;7.20;99.90;;;;;;5033975;28;20245;-86
2022/11/22 11:29:30;;;;;;;0.90;0.73;;;7.30;99.90;;;;;;4996269;28;20218;-87
2022/11/22 11:32:16;;;;;;;1.00;1.00;;;7.30;99.90;;;;;;5032594;28;21303;-87
2022/11/22 11:35:04;;;;;;;1.30;1.20;;;7.30;99.90;;;;;;5034044;28;20304;-86
2022/11/22 11:37:35;;;;;;;2.23;0.70;;;7.30;99.90;;;;;;5030760;28;20823;-87
2022/11/22 11:40:02;;;;;;;1.50;1.17;;;7.30;99.90;;;;;;5035041;28;20182;-87
2022/11/22 11:42:31;;;;;;;2.77;1.23;;;7.30;99.90;;;;;;5015170;28;20454;-88
2022/11/22 11:45:25;;;;;;;8.00;4.90;;;7.40;99.90;;;;;;5031667;28;20299;-86
2022/11/22 11:47:51;;;;;;;1.00;0.77;;;7.40;99.90;;;;;;5031152;28;20218;-88
2022/11/22 11:50:25;;;;;;;0.70;0.70;;;7.40;99.90;;;;;;4997848;28;20231;-87
2022/11/22 11:52:55;;;;;;;1.73;1.63;;;7.50;99.90;;;;;;5032340;28;20232;-86
2022/11/22 11:55:21;;;;;;;2.27;2.13;;;7.50;99.90;;;;;;5032997;28;20227;-87
2022/11/22 11:57:48;;;;;;;0.77;0.77;;;7.60;99.90;;;;;;4999183;28;20655;-87
2022/11/22 12:00:25;;;;;;;0.90;0.90;;;7.70;99.90;;;;;;5014040;28;20222;-86
2022/11/22 12:02:58;;;;;;;1.97;1.00;;;7.70;99.90;;;;;;5030278;28;20758;-88
2022/11/22 12:05:31;;;;;;;1.03;0.67;;;7.70;99.90;;;;;;5029745;28;20206;-87
2022/11/22 12:07:57;;;;;;;1.30;0.77;;;7.70;99.90;;;;;;5031348;28;20214;-87
2022/11/22 12:10:45;;;;;;;0.60;0.60;;;7.70;99.90;;;;;;5013237;28;20239;-88
2022/11/22 12:13:23;;;;;;;4.53;1.27;;;7.70;99.90;;;;;;5030942;28;20652;-87
2022/11/22 12:16:07;;;;;;;1.77;1.00;;;7.70;99.90;;;;;;5034548;28;20189;-88
2022/11/22 12:19:04;;;;;;;1.03;1.03;;;7.70;99.90;;;;;;5032041;28;20440;-86
2022/11/22 12:22:21;;;;;;;0.67;0.67;;;7.70;99.90;;;;;;5041144;28;20315;-87
2022/11/22 12:25:05;;;;;;;1.17;0.80;;;7.70;99.90;;;;;;4973027;28;20304;-86
2022/11/22 12:27:31;;;;;;;0.47;0.47;;;7.70;99.90;;;;;;5031734;28;20246;-86
2022/11/22 12:29:57;;;;;;;0.67;0.67;;;7.70;99.90;;;;;;5000581;28;20207;-87
2022/11/22 12:32:33;;;;;;;1.83;1.60;;;7.80;99.90;;;;;;5013707;28;20741;-87
2022/11/22 12:35:08;;;;;;;0.43;0.43;;;7.90;99.90;;;;;;5037779;28;20581;-87
2022/11/22 12:38:01;;;;;;;0.40;0.40;;;7.90;99.90;;;;;;5034581;28;20238;-85
2022/11/22 12:40:51;;;;;;;0.60;0.60;;;7.90;99.90;;;;;;5036894;28;20425;-86
2022/11/22 12:43:33;;;;;;;1.53;1.43;;;7.90;99.90;;;;;;5037497;28;20269;-86
2022/11/22 12:46:12;;;;;;;2.00;0.60;;;7.90;99.90;;;;;;5038648;28;20533;-86
2022/11/22 12:49:05;;;;;;;0.87;0.87;;;7.90;99.90;;;;;;5035095;28;20216;-86
2022/11/22 12:51:43;;;;;;;0.50;0.50;;;8.00;99.90;;;;;;5029513;28;20265;-85
2022/11/22 12:54:22;;;;;;;1.40;1.23;;;7.90;99.90;;;;;;5035318;28;20222;-86
2022/11/22 12:56:52;;;;;;;1.77;0.60;;;7.90;99.90;;;;;;5035687;28;20316;-86
2022/11/22 12:59:31;;;;;;;0.90;0.90;;;8.00;99.90;;;;;;5053244;28;20940;-86
2022/11/22 13:02:16;;;;;;;1.07;0.97;;;8.00;99.90;;;;;;5037191;28;20221;-85
2022/11/22 13:04:57;;;;;;;0.63;0.63;;;8.00;99.90;;;;;;5036956;28;20218;-86
2022/11/22 13:07:44;;;;;;;0.30;0.30;;;8.00;99.90;;;;;;5035298;28;20646;-89
2022/11/22 13:10:44;;;;;;;0.80;0.80;;;8.10;99.90;;;;;;5036546;28;20193;-90
2022/11/22 13:13:23;;;;;;;0.30;0.30;;;8.20;99.90;;;;;;4987412;28;20226;-88
2022/11/22 13:15:51;;;;;;;0.67;0.67;;;8.10;99.90;;;;;;5033702;28;20183;-88
2022/11/22 13:18:18;;;;;;;0.60;0.60;;;8.10;99.90;;;;;;5033862;28;20222;-89
2022/11/22 13:20:54;;;;;;;9.03;1.70;;;8.00;99.90;;;;;;5019197;28;20223;-89
2022/11/22 13:23:28;;;;;;;0.53;0.53;;;8.00;99.90;;;;;;5034937;28;20226;-90